Odate Noshiro, Japan

4:48 PM JST on September 23, 2014 (GMT +0900)
Odate-Noshiro | Change Station
CLOSE
Current Station
Airport
Location: Odate Noshiro,
Elevation: 285 ft
Nearby Weather Stations

Elev 285 ft 40.19 °N, 140.37 °E | Updated 48 minutes ago

Scattered Clouds
Scattered Clouds
68 °F
Feels Like 68 °F
N
5
Wind Variable Wind from West

Today
High -- | Low -- °F
--% Chance of Precip.
Yesterday
High -- | Low -- °F
Precip. -- in
5:26 AM 5:34 PM
Waning Crescent, 1% visible
Pressure 30.09 in
Visibility 6.2 miles
Clouds Few 2500 ft
Scattered Clouds 7000 ft
Dew Point 59 °F
Humidity 73%
Rainfall 0.00 in
Snow Depth Not available.
UV 1 out of 12
Pollen Not available.
Air Quality Not available.
Flu Activity Not available.
METAR RJSR 230700Z 28004KT 9999 FEW025 SCT070 BKN/// 20/15 Q1019

More Conditions Fewer Conditions

Pressure 30.09 in
Visibility 6.2 miles
Clouds Few 2500 ft
Scattered Clouds 7000 ft
Dew Point 59 °F
Humidity 73%
Rainfall 0.00 in
Snow Depth Not available.
UV 1 out of 12
Pollen Not available.
Air Quality Not available.
Flu Activity Not available.
METAR RJSR 230700Z 28004KT 9999 FEW025 SCT070 BKN/// 20/15 Q1019

More Conditions Fewer Conditions

10-Day Weather Forecast

Almanac

Astronomy

Sep. 23, 2014 Rise Set
Actual Time 5:26 AM JST 5:34 PM JST
Civil Twilight 4:59 AM JST 6:02 PM JST
Nautical Twilight 4:27 AM JST 6:33 PM JST
Astronomical Twilight 3:55 AM JST 7:05 PM JST
Moon 4:15 AM JST 4:53 PM JST
Length of Visible Light 13h 02m
Length of Day
12h 08m
Tomorrow will be 2m 38s shorter.
Waning Crescent, 1% of the Moon is Illuminated
Today
Waning Crescent
Sep 24
New
Oct 1
First Quarter
Oct 8
Full
Oct 15
Last Quarter

Yesterday's Extremes

Country Highs Country Lows

Community

WunderPhotos

Upload Photos

1,755,608 photos uploaded!

Nearby

Snow Depth

Not available.

Earthquake Activity

City Distance Mag. Time & Date
No recent earthquake activity has been reported nearby.
Minimum magnitude displayed is 2.5.

Coastal Water Temperatures

Place Temperature
No Stations Reporting

Nearby Weather Stations